sensor_id;sensor_type;location;lat;lon;timestamp;P1;durP1;ratioP1;P2;durP2;ratioP2
30420;SDS011;17218;54.070;10.012;2023-04-24T00:00:23;7.70;;;7.00;;
30420;SDS011;17218;54.070;10.012;2023-04-24T00:02:50;7.28;;;6.45;;
30420;SDS011;17218;54.070;10.012;2023-04-24T00:05:16;7.95;;;6.95;;
30420;SDS011;17218;54.070;10.012;2023-04-24T00:07:44;7.68;;;6.82;;
30420;SDS011;17218;54.070;10.012;2023-04-24T00:10:11;11.38;;;7.40;;
30420;SDS011;17218;54.070;10.012;2023-04-24T00:12:39;7.90;;;7.05;;
30420;SDS011;17218;54.070;10.012;2023-04-24T00:15:06;7.45;;;6.75;;
30420;SDS011;17218;54.070;10.012;2023-04-24T00:17:34;8.27;;;7.47;;
30420;SDS011;17218;54.070;10.012;2023-04-24T00:20:00;9.40;;;7.25;;
30420;SDS011;17218;54.070;10.012;2023-04-24T00:22:29;9.10;;;7.82;;
30420;SDS011;17218;54.070;10.012;2023-04-24T00:24:56;8.23;;;7.35;;
30420;SDS011;17218;54.070;10.012;2023-04-24T00:27:23;7.95;;;7.25;;
30420;SDS011;17218;54.070;10.012;2023-04-24T00:29:51;7.22;;;6.53;;
30420;SDS011;17218;54.070;10.012;2023-04-24T00:32:18;7.50;;;6.65;;
30420;SDS011;17218;54.070;10.012;2023-04-24T00:34:44;7.32;;;6.38;;
30420;SDS011;17218;54.070;10.012;2023-04-24T00:37:11;7.80;;;6.97;;
30420;SDS011;17218;54.070;10.012;2023-04-24T00:39:37;7.55;;;6.75;;
30420;SDS011;17218;54.070;10.012;2023-04-24T00:42:04;7.05;;;6.43;;
30420;SDS011;17218;54.070;10.012;2023-04-24T00:44:31;7.18;;;6.57;;
30420;SDS011;17218;54.070;10.012;2023-04-24T00:47:00;7.35;;;6.57;;
30420;SDS011;17218;54.070;10.012;2023-04-24T00:49:27;7.43;;;6.38;;
30420;SDS011;17218;54.070;10.012;2023-04-24T00:51:53;6.63;;;6.03;;
30420;SDS011;17218;54.070;10.012;2023-04-24T00:54:20;7.78;;;6.43;;
30420;SDS011;17218;54.070;10.012;2023-04-24T00:56:46;7.43;;;6.72;;
30420;SDS011;17218;54.070;10.012;2023-04-24T00:59:13;6.40;;;5.80;;
30420;SDS011;17218;54.070;10.012;2023-04-24T01:01:43;7.38;;;6.38;;
30420;SDS011;17218;54.070;10.012;2023-04-24T01:04:11;7.05;;;6.28;;
30420;SDS011;17218;54.070;10.012;2023-04-24T01:06:39;6.97;;;5.95;;
30420;SDS011;17218;54.070;10.012;2023-04-24T01:09:06;8.73;;;6.70;;
30420;SDS011;17218;54.070;10.012;2023-04-24T01:11:34;7.30;;;6.60;;
30420;SDS011;17218;54.070;10.012;2023-04-24T01:14:00;6.50;;;5.90;;
30420;SDS011;17218;54.070;10.012;2023-04-24T01:16:27;7.40;;;6.63;;
30420;SDS011;17218;54.070;10.012;2023-04-24T01:18:54;6.78;;;6.07;;
30420;SDS011;17218;54.070;10.012;2023-04-24T01:21:22;7.38;;;6.57;;
30420;SDS011;17218;54.070;10.012;2023-04-24T01:23:54;7.30;;;6.60;;
30420;SDS011;17218;54.070;10.012;2023-04-24T01:26:21;7.85;;;6.75;;
30420;SDS011;17218;54.070;10.012;2023-04-24T01:28:50;7.80;;;7.10;;
30420;SDS011;17218;54.070;10.012;2023-04-24T01:31:17;8.00;;;6.95;;
30420;SDS011;17218;54.070;10.012;2023-04-24T01:33:43;8.75;;;7.45;;
30420;SDS011;17218;54.070;10.012;2023-04-24T01:36:10;7.78;;;6.97;;
30420;SDS011;17218;54.070;10.012;2023-04-24T01:38:37;9.23;;;7.00;;
30420;SDS011;17218;54.070;10.012;2023-04-24T01:41:05;7.82;;;7.00;;
30420;SDS011;17218;54.070;10.012;2023-04-24T01:43:31;7.80;;;7.03;;
30420;SDS011;17218;54.070;10.012;2023-04-24T01:45:58;7.88;;;7.18;;
30420;SDS011;17218;54.070;10.012;2023-04-24T01:48:24;8.65;;;7.75;;
30420;SDS011;17218;54.070;10.012;2023-04-24T01:50:51;8.00;;;7.07;;
30420;SDS011;17218;54.070;10.012;2023-04-24T01:53:18;10.35;;;8.05;;
30420;SDS011;17218;54.070;10.012;2023-04-24T01:55:44;8.48;;;7.38;;
30420;SDS011;17218;54.070;10.012;2023-04-24T01:58:12;7.85;;;7.05;;
30420;SDS011;17218;54.070;10.012;2023-04-24T02:00:39;9.32;;;8.43;;
30420;SDS011;17218;54.070;10.012;2023-04-24T02:03:06;8.52;;;7.72;;
30420;SDS011;17218;54.070;10.012;2023-04-24T02:05:33;9.10;;;8.15;;
30420;SDS011;17218;54.070;10.012;2023-04-24T02:07:59;8.90;;;7.97;;
30420;SDS011;17218;54.070;10.012;2023-04-24T02:10:25;9.77;;;8.77;;
30420;SDS011;17218;54.070;10.012;2023-04-24T02:12:52;9.35;;;8.48;;
30420;SDS011;17218;54.070;10.012;2023-04-24T02:15:20;8.93;;;8.05;;
30420;SDS011;17218;54.070;10.012;2023-04-24T02:17:47;9.70;;;8.07;;
30420;SDS011;17218;54.070;10.012;2023-04-24T02:20:13;12.10;;;8.48;;
30420;SDS011;17218;54.070;10.012;2023-04-24T02:22:39;8.50;;;7.70;;
30420;SDS011;17218;54.070;10.012;2023-04-24T02:25:06;9.57;;;8.50;;
30420;SDS011;17218;54.070;10.012;2023-04-24T02:27:33;9.38;;;8.32;;
30420;SDS011;17218;54.070;10.012;2023-04-24T02:30:00;9.00;;;8.15;;
30420;SDS011;17218;54.070;10.012;2023-04-24T02:32:27;9.27;;;7.93;;
30420;SDS011;17218;54.070;10.012;2023-04-24T02:34:55;10.25;;;8.00;;
30420;SDS011;17218;54.070;10.012;2023-04-24T02:37:22;9.15;;;8.35;;
30420;SDS011;17218;54.070;10.012;2023-04-24T02:39:48;9.68;;;8.07;;
30420;SDS011;17218;54.070;10.012;2023-04-24T02:42:15;9.10;;;7.57;;
30420;SDS011;17218;54.070;10.012;2023-04-24T02:44:41;10.70;;;9.07;;
30420;SDS011;17218;54.070;10.012;2023-04-24T02:47:08;9.15;;;8.25;;
30420;SDS011;17218;54.070;10.012;2023-04-24T02:49:36;9.57;;;8.15;;
30420;SDS011;17218;54.070;10.012;2023-04-24T02:52:02;9.45;;;8.25;;
30420;SDS011;17218;54.070;10.012;2023-04-24T02:54:29;8.60;;;7.82;;
30420;SDS011;17218;54.070;10.012;2023-04-24T02:56:55;8.20;;;7.32;;
30420;SDS011;17218;54.070;10.012;2023-04-24T02:59:22;9.43;;;7.88;;
30420;SDS011;17218;54.070;10.012;2023-04-24T03:01:48;8.23;;;7.43;;
30420;SDS011;17218;54.070;10.012;2023-04-24T03:04:15;8.15;;;7.35;;
30420;SDS011;17218;54.070;10.012;2023-04-24T03:06:42;8.15;;;7.15;;
30420;SDS011;17218;54.070;10.012;2023-04-24T03:09:09;8.52;;;6.80;;
30420;SDS011;17218;54.070;10.012;2023-04-24T03:11:35;8.10;;;7.30;;
30420;SDS011;17218;54.070;10.012;2023-04-24T03:14:02;7.40;;;6.38;;
30420;SDS011;17218;54.070;10.012;2023-04-24T03:16:28;8.07;;;7.00;;
30420;SDS011;17218;54.070;10.012;2023-04-24T03:18:55;7.72;;;6.93;;
30420;SDS011;17218;54.070;10.012;2023-04-24T03:21:22;11.15;;;7.72;;
30420;SDS011;17218;54.070;10.012;2023-04-24T03:23:50;6.80;;;6.20;;
30420;SDS011;17218;54.070;10.012;2023-04-24T03:26:16;6.47;;;5.88;;
30420;SDS011;17218;54.070;10.012;2023-04-24T03:28:43;6.85;;;5.85;;
30420;SDS011;17218;54.070;10.012;2023-04-24T03:31:09;6.57;;;5.95;;
30420;SDS011;17218;54.070;10.012;2023-04-24T03:33:35;6.82;;;6.22;;
30420;SDS011;17218;54.070;10.012;2023-04-24T03:36:02;7.30;;;6.38;;
30420;SDS011;17218;54.070;10.012;2023-04-24T03:38:30;6.53;;;5.75;;
30420;SDS011;17218;54.070;10.012;2023-04-24T03:40:58;6.15;;;5.55;;
30420;SDS011;17218;54.070;10.012;2023-04-24T03:43:24;7.10;;;5.60;;
30420;SDS011;17218;54.070;10.012;2023-04-24T03:45:52;5.10;;;4.70;;
30420;SDS011;17218;54.070;10.012;2023-04-24T03:48:19;5.50;;;5.00;;
30420;SDS011;17218;54.070;10.012;2023-04-24T03:50:45;5.22;;;4.82;;
30420;SDS011;17218;54.070;10.012;2023-04-24T03:53:12;4.85;;;4.45;;
30420;SDS011;17218;54.070;10.012;2023-04-24T03:55:38;5.53;;;5.03;;
30420;SDS011;17218;54.070;10.012;2023-04-24T03:58:06;4.80;;;4.40;;
30420;SDS011;17218;54.070;10.012;2023-04-24T04:00:32;5.30;;;4.38;;
30420;SDS011;17218;54.070;10.012;2023-04-24T04:02:59;5.72;;;4.10;;
30420;SDS011;17218;54.070;10.012;2023-04-24T04:05:26;4.78;;;4.38;;
30420;SDS011;17218;54.070;10.012;2023-04-24T04:07:52;4.40;;;4.00;;
30420;SDS011;17218;54.070;10.012;2023-04-24T04:10:19;4.00;;;3.60;;
30420;SDS011;17218;54.070;10.012;2023-04-24T04:12:45;3.70;;;3.40;;
30420;SDS011;17218;54.070;10.012;2023-04-24T04:15:13;3.35;;;3.05;;
30420;SDS011;17218;54.070;10.012;2023-04-24T04:17:39;3.65;;;3.35;;
30420;SDS011;17218;54.070;10.012;2023-04-24T04:20:06;3.40;;;3.10;;
30420;SDS011;17218;54.070;10.012;2023-04-24T04:22:35;3.70;;;2.65;;
30420;SDS011;17218;54.070;10.012;2023-04-24T04:25:01;3.65;;;2.85;;
30420;SDS011;17218;54.070;10.012;2023-04-24T04:27:28;3.08;;;2.80;;
30420;SDS011;17218;54.070;10.012;2023-04-24T04:29:57;3.20;;;2.90;;
30420;SDS011;17218;54.070;10.012;2023-04-24T04:32:25;5.05;;;3.05;;
30420;SDS011;17218;54.070;10.012;2023-04-24T04:34:52;3.10;;;2.90;;
30420;SDS011;17218;54.070;10.012;2023-04-24T04:37:19;3.63;;;3.17;;
30420;SDS011;17218;54.070;10.012;2023-04-24T04:39:45;4.93;;;2.95;;
30420;SDS011;17218;54.070;10.012;2023-04-24T04:42:12;3.55;;;3.15;;
30420;SDS011;17218;54.070;10.012;2023-04-24T04:44:38;3.47;;;3.17;;
30420;SDS011;17218;54.070;10.012;2023-04-24T04:47:05;3.25;;;2.90;;
30420;SDS011;17218;54.070;10.012;2023-04-24T04:49:33;3.80;;;3.45;;
30420;SDS011;17218;54.070;10.012;2023-04-24T04:52:00;4.53;;;3.30;;
30420;SDS011;17218;54.070;10.012;2023-04-24T04:54:27;2.70;;;2.50;;
30420;SDS011;17218;54.070;10.012;2023-04-24T04:56:53;3.03;;;2.72;;
30420;SDS011;17218;54.070;10.012;2023-04-24T04:59:20;4.28;;;3.17;;
30420;SDS011;17218;54.070;10.012;2023-04-24T05:01:47;3.08;;;2.78;;
30420;SDS011;17218;54.070;10.012;2023-04-24T05:04:13;4.85;;;3.17;;
30420;SDS011;17218;54.070;10.012;2023-04-24T05:06:41;2.78;;;2.58;;
30420;SDS011;17218;54.070;10.012;2023-04-24T05:09:07;3.28;;;2.70;;
30420;SDS011;17218;54.070;10.012;2023-04-24T05:11:34;3.13;;;2.83;;
30420;SDS011;17218;54.070;10.012;2023-04-24T05:14:01;3.05;;;2.67;;
30420;SDS011;17218;54.070;10.012;2023-04-24T05:16:27;3.25;;;2.95;;
30420;SDS011;17218;54.070;10.012;2023-04-24T05:18:54;3.40;;;2.78;;
30420;SDS011;17218;54.070;10.012;2023-04-24T05:21:20;4.32;;;3.08;;
30420;SDS011;17218;54.070;10.012;2023-04-24T05:23:48;5.68;;;3.15;;
30420;SDS011;17218;54.070;10.012;2023-04-24T05:26:14;3.17;;;2.88;;
30420;SDS011;17218;54.070;10.012;2023-04-24T05:28:41;3.83;;;2.75;;
30420;SDS011;17218;54.070;10.012;2023-04-24T05:31:08;4.25;;;2.88;;
30420;SDS011;17218;54.070;10.012;2023-04-24T05:33:34;2.95;;;2.70;;
30420;SDS011;17218;54.070;10.012;2023-04-24T05:36:01;3.85;;;2.80;;
30420;SDS011;17218;54.070;10.012;2023-04-24T05:38:27;2.35;;;2.15;;
30420;SDS011;17218;54.070;10.012;2023-04-24T05:40:55;2.95;;;2.50;;
30420;SDS011;17218;54.070;10.012;2023-04-24T05:43:22;2.65;;;2.33;;
30420;SDS011;17218;54.070;10.012;2023-04-24T05:45:48;2.67;;;2.28;;
30420;SDS011;17218;54.070;10.012;2023-04-24T05:48:14;3.00;;;2.70;;
30420;SDS011;17218;54.070;10.012;2023-04-24T05:50:41;3.30;;;2.45;;
30420;SDS011;17218;54.070;10.012;2023-04-24T05:53:07;2.60;;;2.40;;
30420;SDS011;17218;54.070;10.012;2023-04-24T05:55:35;2.25;;;1.95;;
30420;SDS011;17218;54.070;10.012;2023-04-24T05:58:03;2.38;;;2.05;;
30420;SDS011;17218;54.070;10.012;2023-04-24T06:00:30;2.55;;;2.20;;
30420;SDS011;17218;54.070;10.012;2023-04-24T06:02:57;3.53;;;2.03;;
30420;SDS011;17218;54.070;10.012;2023-04-24T06:05:24;2.45;;;2.25;;
30420;SDS011;17218;54.070;10.012;2023-04-24T06:07:51;2.50;;;2.30;;
30420;SDS011;17218;54.070;10.012;2023-04-24T06:10:17;2.55;;;2.35;;
30420;SDS011;17218;54.070;10.012;2023-04-24T06:12:44;2.40;;;2.20;;
30420;SDS011;17218;54.070;10.012;2023-04-24T06:15:12;2.92;;;2.08;;
30420;SDS011;17218;54.070;10.012;2023-04-24T06:17:38;4.43;;;2.40;;
30420;SDS011;17218;54.070;10.012;2023-04-24T06:20:05;2.10;;;1.98;;
30420;SDS011;17218;54.070;10.012;2023-04-24T06:22:33;2.38;;;2.17;;
30420;SDS011;17218;54.070;10.012;2023-04-24T06:25:00;2.05;;;1.95;;
30420;SDS011;17218;54.070;10.012;2023-04-24T06:27:26;2.65;;;2.45;;
30420;SDS011;17218;54.070;10.012;2023-04-24T06:29:53;2.30;;;2.10;;
30420;SDS011;17218;54.070;10.012;2023-04-24T06:32:22;2.30;;;2.10;;
30420;SDS011;17218;54.070;10.012;2023-04-24T06:34:49;2.28;;;1.88;;
30420;SDS011;17218;54.070;10.012;2023-04-24T06:37:16;2.10;;;1.90;;
30420;SDS011;17218;54.070;10.012;2023-04-24T06:39:44;2.10;;;1.90;;
30420;SDS011;17218;54.070;10.012;2023-04-24T06:42:10;4.13;;;1.92;;
30420;SDS011;17218;54.070;10.012;2023-04-24T06:44:37;2.67;;;1.88;;
30420;SDS011;17218;54.070;10.012;2023-04-24T06:47:05;2.15;;;1.95;;
30420;SDS011;17218;54.070;10.012;2023-04-24T06:49:33;2.67;;;1.90;;
30420;SDS011;17218;54.070;10.012;2023-04-24T06:52:00;3.92;;;1.77;;
30420;SDS011;17218;54.070;10.012;2023-04-24T06:54:26;1.60;;;1.50;;
30420;SDS011;17218;54.070;10.012;2023-04-24T06:56:53;2.08;;;1.85;;
30420;SDS011;17218;54.070;10.012;2023-04-24T06:59:20;2.58;;;1.77;;
30420;SDS011;17218;54.070;10.012;2023-04-24T07:01:47;2.83;;;1.67;;
30420;SDS011;17218;54.070;10.012;2023-04-24T07:04:13;1.70;;;1.58;;
30420;SDS011;17218;54.070;10.012;2023-04-24T07:06:41;2.92;;;1.70;;
30420;SDS011;17218;54.070;10.012;2023-04-24T07:09:08;1.85;;;1.50;;
30420;SDS011;17218;54.070;10.012;2023-04-24T07:11:35;1.83;;;1.73;;
30420;SDS011;17218;54.070;10.012;2023-04-24T07:14:03;1.60;;;1.50;;
30420;SDS011;17218;54.070;10.012;2023-04-24T07:16:30;1.98;;;1.75;;
30420;SDS011;17218;54.070;10.012;2023-04-24T07:18:56;2.22;;;2.03;;
30420;SDS011;17218;54.070;10.012;2023-04-24T07:21:23;1.85;;;1.75;;
30420;SDS011;17218;54.070;10.012;2023-04-24T07:23:52;1.80;;;1.70;;
30420;SDS011;17218;54.070;10.012;2023-04-24T07:26:19;1.75;;;1.63;;
30420;SDS011;17218;54.070;10.012;2023-04-24T07:28:46;2.63;;;1.83;;
30420;SDS011;17218;54.070;10.012;2023-04-24T07:31:12;2.40;;;1.75;;
30420;SDS011;17218;54.070;10.012;2023-04-24T07:33:39;4.07;;;2.13;;
30420;SDS011;17218;54.070;10.012;2023-04-24T07:36:06;1.95;;;1.77;;
30420;SDS011;17218;54.070;10.012;2023-04-24T07:38:33;2.08;;;1.85;;
30420;SDS011;17218;54.070;10.012;2023-04-24T07:41:00;1.63;;;1.52;;
30420;SDS011;17218;54.070;10.012;2023-04-24T07:43:27;2.08;;;1.88;;
30420;SDS011;17218;54.070;10.012;2023-04-24T07:45:53;1.92;;;1.70;;
30420;SDS011;17218;54.070;10.012;2023-04-24T07:48:20;1.83;;;1.73;;
30420;SDS011;17218;54.070;10.012;2023-04-24T07:50:47;2.15;;;1.90;;
30420;SDS011;17218;54.070;10.012;2023-04-24T07:53:13;2.72;;;1.90;;
30420;SDS011;17218;54.070;10.012;2023-04-24T07:55:40;2.38;;;2.10;;
30420;SDS011;17218;54.070;10.012;2023-04-24T07:58:08;3.45;;;2.10;;
30420;SDS011;17218;54.070;10.012;2023-04-24T08:00:34;2.90;;;2.60;;
30420;SDS011;17218;54.070;10.012;2023-04-24T08:03:01;2.20;;;2.00;;
30420;SDS011;17218;54.070;10.012;2023-04-24T08:05:28;2.60;;;2.40;;
30420;SDS011;17218;54.070;10.012;2023-04-24T08:07:54;2.97;;;2.22;;
30420;SDS011;17218;54.070;10.012;2023-04-24T08:10:21;2.53;;;2.33;;
30420;SDS011;17218;54.070;10.012;2023-04-24T08:12:48;3.10;;;2.90;;
30420;SDS011;17218;54.070;10.012;2023-04-24T08:15:16;3.10;;;2.72;;
30420;SDS011;17218;54.070;10.012;2023-04-24T08:17:43;3.08;;;2.88;;
30420;SDS011;17218;54.070;10.012;2023-04-24T08:20:10;2.78;;;2.58;;
30420;SDS011;17218;54.070;10.012;2023-04-24T08:22:38;3.25;;;2.97;;
30420;SDS011;17218;54.070;10.012;2023-04-24T08:25:05;4.00;;;2.95;;
30420;SDS011;17218;54.070;10.012;2023-04-24T08:27:32;4.20;;;2.83;;
30420;SDS011;17218;54.070;10.012;2023-04-24T08:29:58;3.13;;;2.83;;
30420;SDS011;17218;54.070;10.012;2023-04-24T08:32:27;2.83;;;2.63;;
30420;SDS011;17218;54.070;10.012;2023-04-24T08:34:54;2.90;;;2.70;;
30420;SDS011;17218;54.070;10.012;2023-04-24T08:37:21;3.55;;;3.25;;
30420;SDS011;17218;54.070;10.012;2023-04-24T08:39:47;3.53;;;3.22;;
30420;SDS011;17218;54.070;10.012;2023-04-24T08:42:15;3.97;;;3.08;;
30420;SDS011;17218;54.070;10.012;2023-04-24T08:44:42;3.38;;;2.70;;
30420;SDS011;17218;54.070;10.012;2023-04-24T08:47:09;3.65;;;3.30;;
30420;SDS011;17218;54.070;10.012;2023-04-24T08:49:38;3.75;;;3.45;;
30420;SDS011;17218;54.070;10.012;2023-04-24T08:52:05;3.67;;;3.38;;
30420;SDS011;17218;54.070;10.012;2023-04-24T08:54:31;4.22;;;3.15;;
30420;SDS011;17218;54.070;10.012;2023-04-24T08:57:01;5.15;;;4.03;;
30420;SDS011;17218;54.070;10.012;2023-04-24T08:59:29;3.83;;;3.45;;
30420;SDS011;17218;54.070;10.012;2023-04-24T09:01:57;3.55;;;3.25;;
30420;SDS011;17218;54.070;10.012;2023-04-24T09:04:24;4.00;;;3.60;;
30420;SDS011;17218;54.070;10.012;2023-04-24T09:06:52;4.45;;;4.05;;
30420;SDS011;17218;54.070;10.012;2023-04-24T09:09:22;4.13;;;3.72;;
30420;SDS011;17218;54.070;10.012;2023-04-24T09:11:49;4.13;;;3.53;;
30420;SDS011;17218;54.070;10.012;2023-04-24T09:14:15;4.70;;;4.30;;
30420;SDS011;17218;54.070;10.012;2023-04-24T09:16:42;4.40;;;3.92;;
30420;SDS011;17218;54.070;10.012;2023-04-24T09:19:09;4.80;;;4.40;;
30420;SDS011;17218;54.070;10.012;2023-04-24T09:21:35;5.10;;;4.65;;
30420;SDS011;17218;54.070;10.012;2023-04-24T09:24:05;4.72;;;4.32;;
30420;SDS011;17218;54.070;10.012;2023-04-24T09:26:34;4.53;;;4.10;;
30420;SDS011;17218;54.070;10.012;2023-04-24T09:29:02;4.97;;;4.53;;
30420;SDS011;17218;54.070;10.012;2023-04-24T09:31:29;4.93;;;4.53;;
30420;SDS011;17218;54.070;10.012;2023-04-24T09:33:57;5.32;;;4.30;;
30420;SDS011;17218;54.070;10.012;2023-04-24T09:36:26;5.25;;;4.50;;
30420;SDS011;17218;54.070;10.012;2023-04-24T09:38:57;4.72;;;4.32;;
30420;SDS011;17218;54.070;10.012;2023-04-24T09:41:26;5.38;;;4.50;;
30420;SDS011;17218;54.070;10.012;2023-04-24T09:43:53;5.38;;;4.88;;
30420;SDS011;17218;54.070;10.012;2023-04-24T09:46:20;5.03;;;4.53;;
30420;SDS011;17218;54.070;10.012;2023-04-24T09:48:47;4.80;;;4.40;;
30420;SDS011;17218;54.070;10.012;2023-04-24T09:51:14;5.32;;;4.82;;
30420;SDS011;17218;54.070;10.012;2023-04-24T09:53:44;5.68;;;5.00;;
30420;SDS011;17218;54.070;10.012;2023-04-24T09:56:11;6.55;;;4.88;;
30420;SDS011;17218;54.070;10.012;2023-04-24T09:58:39;5.78;;;4.60;;
30420;SDS011;17218;54.070;10.012;2023-04-24T10:01:06;4.82;;;4.43;;
30420;SDS011;17218;54.070;10.012;2023-04-24T10:03:33;7.22;;;6.57;;
30420;SDS011;17218;54.070;10.012;2023-04-24T10:06:00;4.95;;;4.55;;
30420;SDS011;17218;54.070;10.012;2023-04-24T10:08:29;5.53;;;5.03;;
30420;SDS011;17218;54.070;10.012;2023-04-24T10:10:59;5.53;;;5.00;;
30420;SDS011;17218;54.070;10.012;2023-04-24T10:13:26;6.13;;;5.63;;
30420;SDS011;17218;54.070;10.012;2023-04-24T10:15:55;5.82;;;5.32;;
30420;SDS011;17218;54.070;10.012;2023-04-24T10:18:22;7.07;;;5.75;;
30420;SDS011;17218;54.070;10.012;2023-04-24T10:20:50;6.10;;;5.60;;
30420;SDS011;17218;54.070;10.012;2023-04-24T10:23:17;5.75;;;5.15;;
30420;SDS011;17218;54.070;10.012;2023-04-24T10:25:45;6.35;;;5.50;;
30420;SDS011;17218;54.070;10.012;2023-04-24T10:28:12;5.13;;;4.72;;
30420;SDS011;17218;54.070;10.012;2023-04-24T10:30:40;5.38;;;4.88;;
30420;SDS011;17218;54.070;10.012;2023-04-24T10:33:10;6.07;;;5.47;;
30420;SDS011;17218;54.070;10.012;2023-04-24T10:35:39;5.70;;;5.30;;
30420;SDS011;17218;54.070;10.012;2023-04-24T10:38:09;5.75;;;5.25;;
30420;SDS011;17218;54.070;10.012;2023-04-24T10:40:38;6.50;;;5.90;;
30420;SDS011;17218;54.070;10.012;2023-04-24T10:43:05;6.50;;;5.90;;
30420;SDS011;17218;54.070;10.012;2023-04-24T10:45:34;6.63;;;6.03;;
30420;SDS011;17218;54.070;10.012;2023-04-24T10:48:02;6.40;;;5.82;;
30420;SDS011;17218;54.070;10.012;2023-04-24T10:50:43;6.53;;;6.00;;
30420;SDS011;17218;54.070;10.012;2023-04-24T10:53:14;6.88;;;6.28;;
30420;SDS011;17218;54.070;10.012;2023-04-24T10:55:44;6.90;;;6.30;;
30420;SDS011;17218;54.070;10.012;2023-04-24T10:58:12;8.73;;;6.03;;
30420;SDS011;17218;54.070;10.012;2023-04-24T11:00:41;6.93;;;5.22;;
30420;SDS011;17218;54.070;10.012;2023-04-24T11:03:22;6.57;;;5.97;;
30420;SDS011;17218;54.070;10.012;2023-04-24T11:05:52;6.07;;;5.57;;
30420;SDS011;17218;54.070;10.012;2023-04-24T11:08:23;6.47;;;5.88;;
30420;SDS011;17218;54.070;10.012;2023-04-24T11:10:56;7.03;;;6.22;;
30420;SDS011;17218;54.070;10.012;2023-04-24T11:13:24;6.28;;;5.78;;
30420;SDS011;17218;54.070;10.012;2023-04-24T11:16:12;6.85;;;6.25;;
30420;SDS011;17218;54.070;10.012;2023-04-24T11:18:40;6.47;;;5.88;;
30420;SDS011;17218;54.070;10.012;2023-04-24T11:21:12;5.93;;;5.32;;
30420;SDS011;17218;54.070;10.012;2023-04-24T11:23:39;6.63;;;6.00;;
30420;SDS011;17218;54.070;10.012;2023-04-24T11:26:12;8.55;;;6.57;;
30420;SDS011;17218;54.070;10.012;2023-04-24T11:28:46;9.05;;;6.30;;
30420;SDS011;17218;54.070;10.012;2023-04-24T11:34:09;6.55;;;6.03;;
30420;SDS011;17218;54.070;10.012;2023-04-24T11:36:39;6.60;;;5.93;;
30420;SDS011;17218;54.070;10.012;2023-04-24T11:39:06;7.40;;;6.32;;
30420;SDS011;17218;54.070;10.012;2023-04-24T11:41:33;7.13;;;5.20;;
30420;SDS011;17218;54.070;10.012;2023-04-24T11:44:00;6.68;;;6.07;;
30420;SDS011;17218;54.070;10.012;2023-04-24T11:46:28;7.43;;;6.47;;
30420;SDS011;17218;54.070;10.012;2023-04-24T11:48:56;6.90;;;5.82;;
30420;SDS011;17218;54.070;10.012;2023-04-24T11:51:23;6.65;;;6.05;;
30420;SDS011;17218;54.070;10.012;2023-04-24T11:53:51;7.38;;;6.68;;
30420;SDS011;17218;54.070;10.012;2023-04-24T11:56:18;6.97;;;6.15;;
30420;SDS011;17218;54.070;10.012;2023-04-24T11:58:45;7.28;;;6.57;;
30420;SDS011;17218;54.070;10.012;2023-04-24T12:01:12;7.15;;;6.47;;
30420;SDS011;17218;54.070;10.012;2023-04-24T12:04:25;6.85;;;6.13;;
30420;SDS011;17218;54.070;10.012;2023-04-24T12:06:34;8.02;;;7.22;;
30420;SDS011;17218;54.070;10.012;2023-04-24T12:09:03;7.18;;;6.47;;
30420;SDS011;17218;54.070;10.012;2023-04-24T12:20:26;7.35;;;6.72;;
30420;SDS011;17218;54.070;10.012;2023-04-24T12:22:57;8.10;;;7.13;;
30420;SDS011;17218;54.070;10.012;2023-04-24T12:25:27;9.30;;;7.53;;
30420;SDS011;17218;54.070;10.012;2023-04-24T12:27:55;8.93;;;7.68;;
30420;SDS011;17218;54.070;10.012;2023-04-24T12:30:40;10.02;;;8.45;;
30420;SDS011;17218;54.070;10.012;2023-04-24T12:33:10;9.68;;;8.38;;
30420;SDS011;17218;54.070;10.012;2023-04-24T12:35:40;11.40;;;8.70;;
30420;SDS011;17218;54.070;10.012;2023-04-24T12:38:23;10.25;;;9.30;;
30420;SDS011;17218;54.070;10.012;2023-04-24T12:41:16;10.77;;;9.63;;
30420;SDS011;17218;54.070;10.012;2023-04-24T12:43:52;9.93;;;8.85;;
30420;SDS011;17218;54.070;10.012;2023-04-24T12:46:20;12.63;;;8.63;;
30420;SDS011;17218;54.070;10.012;2023-04-24T12:48:47;9.80;;;8.90;;
30420;SDS011;17218;54.070;10.012;2023-04-24T12:51:13;11.75;;;10.23;;
30420;SDS011;17218;54.070;10.012;2023-04-24T12:53:40;10.73;;;9.65;;
30420;SDS011;17218;54.070;10.012;2023-04-24T12:56:09;12.02;;;10.10;;
30420;SDS011;17218;54.070;10.012;2023-04-24T12:58:39;11.45;;;10.25;;
30420;SDS011;17218;54.070;10.012;2023-04-24T13:01:05;11.45;;;10.35;;
30420;SDS011;17218;54.070;10.012;2023-04-24T13:03:32;11.23;;;9.68;;
30420;SDS011;17218;54.070;10.012;2023-04-24T13:05:59;11.00;;;9.35;;
30420;SDS011;17218;54.070;10.012;2023-04-24T13:11:46;10.40;;;9.25;;
30420;SDS011;17218;54.070;10.012;2023-04-24T13:14:14;11.27;;;10.05;;
30420;SDS011;17218;54.070;10.012;2023-04-24T13:16:43;9.95;;;8.73;;
30420;SDS011;17218;54.070;10.012;2023-04-24T13:19:10;10.65;;;9.40;;
30420;SDS011;17218;54.070;10.012;2023-04-24T13:21:36;11.88;;;10.23;;
30420;SDS011;17218;54.070;10.012;2023-04-24T13:24:03;11.10;;;9.98;;
30420;SDS011;17218;54.070;10.012;2023-04-24T13:26:30;10.10;;;9.10;;
30420;SDS011;17218;54.070;10.012;2023-04-24T13:28:57;10.27;;;9.25;;
30420;SDS011;17218;54.070;10.012;2023-04-24T13:31:25;9.00;;;8.20;;
30420;SDS011;17218;54.070;10.012;2023-04-24T13:33:51;9.35;;;7.28;;
30420;SDS011;17218;54.070;10.012;2023-04-24T13:36:18;8.77;;;7.97;;
30420;SDS011;17218;54.070;10.012;2023-04-24T13:38:44;8.30;;;7.50;;
30420;SDS011;17218;54.070;10.012;2023-04-24T13:41:11;8.32;;;7.28;;
30420;SDS011;17218;54.070;10.012;2023-04-24T13:43:37;8.25;;;7.38;;
30420;SDS011;17218;54.070;10.012;2023-04-24T13:46:06;8.52;;;7.72;;
30420;SDS011;17218;54.070;10.012;2023-04-24T13:48:34;8.90;;;7.13;;
30420;SDS011;17218;54.070;10.012;2023-04-24T13:51:01;6.88;;;6.28;;
30420;SDS011;17218;54.070;10.012;2023-04-24T13:53:27;6.63;;;6.03;;
30420;SDS011;17218;54.070;10.012;2023-04-24T13:55:54;8.38;;;6.15;;
30420;SDS011;17218;54.070;10.012;2023-04-24T13:58:20;6.70;;;6.10;;
30420;SDS011;17218;54.070;10.012;2023-04-24T14:00:47;8.30;;;5.85;;
30420;SDS011;17218;54.070;10.012;2023-04-24T14:03:14;6.50;;;5.90;;
30420;SDS011;17218;54.070;10.012;2023-04-24T14:05:42;6.90;;;6.30;;
30420;SDS011;17218;54.070;10.012;2023-04-24T14:08:09;6.90;;;6.20;;
30420;SDS011;17218;54.070;10.012;2023-04-24T14:10:36;7.10;;;6.50;;
30420;SDS011;17218;54.070;10.012;2023-04-24T14:13:02;6.95;;;6.35;;
30420;SDS011;17218;54.070;10.012;2023-04-24T14:15:30;7.43;;;6.68;;
30420;SDS011;17218;54.070;10.012;2023-04-24T14:17:57;8.45;;;7.22;;
30420;SDS011;17218;54.070;10.012;2023-04-24T14:20:24;7.75;;;7.05;;
30420;SDS011;17218;54.070;10.012;2023-04-24T14:22:52;8.15;;;7.45;;
30420;SDS011;17218;54.070;10.012;2023-04-24T14:25:18;8.80;;;7.93;;
30420;SDS011;17218;54.070;10.012;2023-04-24T14:27:45;9.13;;;8.32;;
30420;SDS011;17218;54.070;10.012;2023-04-24T14:30:12;8.15;;;7.35;;
30420;SDS011;17218;54.070;10.012;2023-04-24T14:32:40;9.13;;;8.10;;
30420;SDS011;17218;54.070;10.012;2023-04-24T14:35:07;8.75;;;7.95;;
30420;SDS011;17218;54.070;10.012;2023-04-24T14:37:34;8.73;;;7.78;;
30420;SDS011;17218;54.070;10.012;2023-04-24T14:40:03;9.88;;;8.45;;
30420;SDS011;17218;54.070;10.012;2023-04-24T14:42:31;10.32;;;8.30;;
30420;SDS011;17218;54.070;10.012;2023-04-24T14:44:58;8.90;;;8.02;;
30420;SDS011;17218;54.070;10.012;2023-04-24T14:47:24;8.82;;;8.05;;
30420;SDS011;17218;54.070;10.012;2023-04-24T14:49:51;8.40;;;7.60;;